createdAt,value
2024-04-26T00:02:23.610Z,65.33
2024-04-26T00:05:09.954Z,68.69
2024-04-26T00:07:56.362Z,67.15
2024-04-26T00:10:43.590Z,64.59
2024-04-26T00:13:30.246Z,62.75
2024-04-26T00:16:17.324Z,61.38
2024-04-26T00:19:03.593Z,60.42
2024-04-26T00:21:49.805Z,59.75
2024-04-26T00:24:38.692Z,57.31
2024-04-26T00:27:24.847Z,56.52
2024-04-26T00:30:12.300Z,58.67
2024-04-26T00:32:59.051Z,60.69
2024-04-26T00:35:46.823Z,65.12
2024-04-26T00:38:33.412Z,66.44
2024-04-26T00:41:19.529Z,66.86
2024-04-26T00:44:13.767Z,66.02
2024-04-26T00:47:00.190Z,63.91
2024-04-26T00:49:47.712Z,63.56
2024-04-26T00:52:35.242Z,62.61
2024-04-26T00:55:21.652Z,61.76
2024-04-26T00:58:08.235Z,61.64
2024-04-26T01:00:54.609Z,61.41
2024-04-26T01:03:41.030Z,56.87
2024-04-26T01:06:27.579Z,56.67
2024-04-26T01:09:14.146Z,60.33
2024-04-26T01:12:02.931Z,63.41
2024-04-26T01:14:49.501Z,63.39
2024-04-26T01:17:36.226Z,63.91
2024-04-26T01:20:22.704Z,62.83
2024-04-26T01:23:09.029Z,63.33
2024-04-26T01:26:05.157Z,63.05
2024-04-26T01:28:51.325Z,59.33
2024-04-26T01:31:37.825Z,57.56
2024-04-26T01:34:24.084Z,59.64
2024-04-26T01:37:10.215Z,63.52
2024-04-26T01:39:56.156Z,63.00
2024-04-26T01:42:42.340Z,62.75
2024-04-26T01:45:28.599Z,62.65
2024-04-26T01:48:14.954Z,59.06
2024-04-26T01:51:01.494Z,59.94
2024-04-26T01:53:47.778Z,62.84
2024-04-26T01:56:34.199Z,64.56
2024-04-26T01:59:21.069Z,62.97
2024-04-26T02:02:07.198Z,62.30
2024-04-26T02:04:53.703Z,61.15
2024-04-26T02:07:43.628Z,59.92
2024-04-26T02:10:30.365Z,60.37
2024-04-26T02:13:16.648Z,63.11
2024-04-26T02:16:02.958Z,64.81
2024-04-26T02:18:49.418Z,63.78
2024-04-26T02:21:35.717Z,62.05
2024-04-26T02:24:22.178Z,61.09
2024-04-26T02:27:08.213Z,60.44
2024-04-26T02:29:54.805Z,60.94
2024-04-26T02:32:41.864Z,59.69
2024-04-26T02:35:28.971Z,61.04
2024-04-26T02:38:15.111Z,64.14
2024-04-26T02:41:03.548Z,64.53
2024-04-26T02:43:51.003Z,63.67
2024-04-26T02:46:38.373Z,61.66
2024-04-26T02:49:24.808Z,62.13
2024-04-26T02:52:11.081Z,61.31
2024-04-26T02:54:57.332Z,62.05
2024-04-26T02:57:43.489Z,59.65
2024-04-26T03:00:29.522Z,60.50
2024-04-26T03:03:15.782Z,63.84
2024-04-26T03:06:10.298Z,63.86
2024-04-26T03:08:56.690Z,62.90
2024-04-26T03:11:43.610Z,62.39
2024-04-26T03:14:29.865Z,62.14
2024-04-26T03:17:16.073Z,61.45
2024-04-26T03:20:02.557Z,60.70
2024-04-26T03:22:48.861Z,60.50
2024-04-26T03:25:35.287Z,60.67
2024-04-26T03:28:21.606Z,60.77
2024-04-26T03:31:09.122Z,61.07
2024-04-26T03:33:55.562Z,61.49
2024-04-26T03:36:41.477Z,61.26
2024-04-26T03:39:27.749Z,62.75
2024-04-26T03:42:13.908Z,60.65
2024-04-26T03:45:00.206Z,60.78
2024-04-26T03:47:48.055Z,60.93
2024-04-26T03:50:34.364Z,61.02
2024-04-26T03:53:20.579Z,60.48
2024-04-26T03:56:07.103Z,60.49
2024-04-26T03:58:53.127Z,59.84
2024-04-26T04:01:39.195Z,60.73
2024-04-26T04:04:25.758Z,60.04
2024-04-26T04:07:12.241Z,60.46
2024-04-26T04:09:58.176Z,60.19
2024-04-26T04:12:45.592Z,60.08
2024-04-26T04:15:32.290Z,59.85
2024-04-26T04:18:18.575Z,60.26
2024-04-26T04:21:05.195Z,60.86
2024-04-26T04:23:52.261Z,59.74
2024-04-26T04:26:38.465Z,59.66
2024-04-26T04:29:25.126Z,63.10
2024-04-26T04:32:14.346Z,64.01
2024-04-26T04:35:01.160Z,62.88
2024-04-26T04:37:47.234Z,62.04
2024-04-26T04:40:33.769Z,61.50
2024-04-26T04:43:20.009Z,61.62
2024-04-26T04:46:06.185Z,62.01
2024-04-26T04:48:52.224Z,61.73
2024-04-26T04:51:38.616Z,60.87
2024-04-26T04:54:25.157Z,60.28
2024-04-26T04:57:11.502Z,60.13
2024-04-26T04:59:57.745Z,59.59
2024-04-26T05:02:44.391Z,61.52
2024-04-26T05:05:30.842Z,64.19
2024-04-26T05:08:16.995Z,63.64
2024-04-26T05:11:03.152Z,62.00
2024-04-26T05:13:49.752Z,61.21
2024-04-26T05:16:35.747Z,60.62
2024-04-26T05:19:22.194Z,60.26
2024-04-26T05:22:10.177Z,60.17
2024-04-26T05:24:56.817Z,60.59
2024-04-26T05:27:43.285Z,61.45
2024-04-26T05:30:30.109Z,62.84
2024-04-26T05:33:16.681Z,63.13
2024-04-26T05:36:03.893Z,61.52
2024-04-26T05:38:50.671Z,58.47
2024-04-26T05:41:37.073Z,57.61
2024-04-26T05:44:23.537Z,57.55
2024-04-26T05:47:09.900Z,56.39
2024-04-26T05:49:56.900Z,56.23
2024-04-26T05:52:43.023Z,53.82
2024-04-26T05:55:29.808Z,53.20
2024-04-26T05:58:16.272Z,51.40
2024-04-26T06:01:02.570Z,48.33
2024-04-26T06:03:49.248Z,46.73
2024-04-26T06:06:40.744Z,46.85
2024-04-26T06:09:26.934Z,46.34
2024-04-26T06:12:13.596Z,43.69
2024-04-26T06:14:59.923Z,40.80
2024-04-26T06:17:46.264Z,42.21
2024-04-26T06:20:33.332Z,41.41
2024-04-26T06:23:19.427Z,40.57
2024-04-26T06:26:05.765Z,40.04
2024-04-26T06:28:52.024Z,39.95
2024-04-26T06:31:44.580Z,39.92
2024-04-26T06:34:30.764Z,38.97
2024-04-26T06:37:17.215Z,37.45
2024-04-26T06:40:03.911Z,36.81
2024-04-26T06:42:50.528Z,36.45
2024-04-26T06:45:36.861Z,34.50
2024-04-26T06:48:24.469Z,33.23
2024-04-26T06:51:10.635Z,32.81
2024-04-26T06:53:57.168Z,31.90
2024-04-26T06:56:43.670Z,30.40
2024-04-26T06:59:30.472Z,29.79
2024-04-26T07:02:17.264Z,29.23
2024-04-26T07:05:04.130Z,28.61
2024-04-26T07:07:50.531Z,27.42
2024-04-26T07:10:37.835Z,27.47
2024-04-26T07:13:24.128Z,27.32
2024-04-26T07:16:17.041Z,27.36
2024-04-26T07:19:05.778Z,28.19
2024-04-26T07:21:58.182Z,28.52
2024-04-26T07:24:44.138Z,27.96
2024-04-26T07:27:30.324Z,28.05
2024-04-26T07:30:16.519Z,27.67
2024-04-26T07:33:05.186Z,26.32
2024-04-26T07:35:53.126Z,26.23
2024-04-26T07:38:39.532Z,26.61
2024-04-26T07:41:26.207Z,26.28
2024-04-26T07:44:12.491Z,25.75
2024-04-26T07:46:58.558Z,25.29
2024-04-26T07:49:45.194Z,24.36
2024-04-26T07:52:31.295Z,24.39
2024-04-26T07:55:17.749Z,24.34
2024-04-26T07:58:04.039Z,24.55
2024-04-26T08:00:50.574Z,23.77
2024-04-26T08:03:37.115Z,23.69
2024-04-26T08:06:23.543Z,23.52
2024-04-26T08:09:09.807Z,22.85
2024-04-26T08:11:56.409Z,22.53
2024-04-26T08:14:42.296Z,22.74
2024-04-26T08:17:28.797Z,23.29
2024-04-26T08:20:15.087Z,24.05
2024-04-26T08:23:01.070Z,23.20
2024-04-26T08:25:47.440Z,24.15
2024-04-26T08:28:33.712Z,24.92
2024-04-26T08:31:20.596Z,25.04
2024-04-26T08:34:08.225Z,24.26
2024-04-26T08:36:54.834Z,24.40
2024-04-26T08:39:49.087Z,24.64
2024-04-26T08:42:39.641Z,24.64
2024-04-26T08:45:31.861Z,24.97
2024-04-26T08:48:18.604Z,24.00
2024-04-26T08:51:09.290Z,22.58
2024-04-26T08:53:55.618Z,22.39
2024-04-26T08:56:42.253Z,23.36
2024-04-26T08:59:40.591Z,24.97
2024-04-26T09:02:27.106Z,26.62
2024-04-26T09:05:18.862Z,28.64
2024-04-26T09:08:05.422Z,29.06
2024-04-26T09:10:51.953Z,27.99
2024-04-26T09:13:38.364Z,27.56
2024-04-26T09:16:24.502Z,28.01
2024-04-26T09:19:10.841Z,27.86
2024-04-26T09:21:57.516Z,27.24
2024-04-26T09:24:43.891Z,26.50
2024-04-26T09:27:30.181Z,26.03
2024-04-26T09:30:16.935Z,24.81
2024-04-26T09:33:04.748Z,24.45
2024-04-26T09:35:55.164Z,24.21
2024-04-26T09:38:42.833Z,22.98
2024-04-26T09:41:29.845Z,21.73
2024-04-26T09:44:16.609Z,21.97
2024-04-26T09:47:04.356Z,23.16
2024-04-26T09:49:52.011Z,23.44
2024-04-26T09:52:38.007Z,24.40
2024-04-26T09:55:26.021Z,25.12
2024-04-26T09:58:12.213Z,26.45
2024-04-26T10:00:59.944Z,28.08
2024-04-26T10:03:48.915Z,29.93
2024-04-26T10:06:43.096Z,31.33
2024-04-26T10:09:29.892Z,30.78
2024-04-26T10:12:26.538Z,29.91
2024-04-26T10:15:13.674Z,28.71
2024-04-26T10:18:00.118Z,27.15
2024-04-26T10:20:46.804Z,26.57
2024-04-26T10:23:36.091Z,26.08
2024-04-26T10:26:22.774Z,24.82
2024-04-26T10:29:13.351Z,24.63
2024-04-26T10:32:09.616Z,25.13
2024-04-26T10:34:55.988Z,25.80
2024-04-26T10:37:43.550Z,26.89
2024-04-26T10:40:29.549Z,28.03
2024-04-26T10:43:29.188Z,28.13
2024-04-26T10:46:19.338Z,28.13
2024-04-26T10:49:15.025Z,28.31
2024-04-26T10:52:04.600Z,29.18
2024-04-26T10:54:51.236Z,30.27
2024-04-26T10:57:39.460Z,31.35
2024-04-26T11:00:36.247Z,31.88
2024-04-26T11:03:22.954Z,31.22
2024-04-26T11:06:09.333Z,29.20
2024-04-26T11:09:13.008Z,28.78
2024-04-26T11:11:59.779Z,29.09
2024-04-26T11:14:46.482Z,29.73
2024-04-26T11:17:33.045Z,30.59
2024-04-26T11:20:19.429Z,31.59
2024-04-26T11:23:05.695Z,32.24
2024-04-26T11:25:51.628Z,32.98
2024-04-26T11:28:42.694Z,33.34
2024-04-26T11:31:29.180Z,33.14
2024-04-26T11:34:16.144Z,32.73
2024-04-26T11:37:06.299Z,32.47
2024-04-26T11:39:53.666Z,32.60
2024-04-26T11:42:40.230Z,32.95
2024-04-26T11:45:26.481Z,33.48
2024-04-26T11:48:12.844Z,34.48
2024-04-26T11:50:59.539Z,34.62
2024-04-26T11:53:46.324Z,33.94
2024-04-26T11:56:33.016Z,33.68
2024-04-26T11:59:19.306Z,33.44
2024-04-26T12:02:05.389Z,33.35
2024-04-26T12:04:51.898Z,33.40
2024-04-26T12:07:43.017Z,33.78
2024-04-26T12:10:29.386Z,33.93
2024-04-26T12:13:15.768Z,34.20
2024-04-26T12:16:02.360Z,34.59
2024-04-26T12:18:48.802Z,34.79
2024-04-26T12:21:35.243Z,34.63
2024-04-26T12:24:21.750Z,34.97
2024-04-26T12:27:12.542Z,35.19
2024-04-26T12:30:00.909Z,35.26
2024-04-26T12:32:47.555Z,35.44
2024-04-26T12:35:35.741Z,35.60
2024-04-26T12:38:21.949Z,35.66
2024-04-26T12:41:08.194Z,35.77
2024-04-26T12:43:54.154Z,36.01
2024-04-26T12:46:40.379Z,36.44
2024-04-26T12:49:27.005Z,36.78
2024-04-26T12:52:13.523Z,37.02
2024-04-26T12:54:59.892Z,37.29
2024-04-26T12:57:46.013Z,38.12
2024-04-26T13:00:32.397Z,38.73
2024-04-26T13:03:19.212Z,38.58
2024-04-26T13:06:05.804Z,37.60
2024-04-26T13:08:52.285Z,37.29
2024-04-26T13:11:38.913Z,36.45
2024-04-26T13:14:25.561Z,36.86
2024-04-26T13:17:12.276Z,35.99
2024-04-26T13:19:58.443Z,34.79
2024-04-26T13:22:44.510Z,34.40
2024-04-26T13:25:30.680Z,34.41
2024-04-26T13:28:18.142Z,34.33
2024-04-26T13:31:04.374Z,34.18
2024-04-26T13:33:50.884Z,34.15
2024-04-26T13:36:40.883Z,34.25
2024-04-26T13:39:26.983Z,34.60
2024-04-26T13:42:15.453Z,34.82
2024-04-26T13:45:02.133Z,34.58
2024-04-26T13:47:48.288Z,34.86
2024-04-26T13:50:34.567Z,35.28
2024-04-26T13:53:20.956Z,35.54
2024-04-26T13:56:10.227Z,35.72
2024-04-26T13:58:56.929Z,36.07
2024-04-26T14:01:44.294Z,36.39
2024-04-26T14:04:32.384Z,36.44
2024-04-26T14:07:19.012Z,36.52
2024-04-26T14:10:06.112Z,36.84
2024-04-26T14:12:52.240Z,36.98
2024-04-26T14:15:38.471Z,37.19
2024-04-26T14:18:24.980Z,37.60
2024-04-26T14:21:12.991Z,37.65
2024-04-26T14:24:00.659Z,37.69
2024-04-26T14:26:47.160Z,37.88
2024-04-26T14:29:41.726Z,37.71
2024-04-26T14:32:34.284Z,37.69
2024-04-26T14:35:20.413Z,37.38
2024-04-26T14:38:06.625Z,37.29
2024-04-26T14:40:52.920Z,37.42
2024-04-26T14:43:39.962Z,37.49
2024-04-26T14:46:25.950Z,37.62
2024-04-26T14:49:14.323Z,37.95
2024-04-26T14:52:01.591Z,37.94
2024-04-26T14:54:47.768Z,38.04
2024-04-26T14:57:34.177Z,37.95
2024-04-26T15:00:20.597Z,38.19
2024-04-26T15:03:07.320Z,38.17
2024-04-26T15:05:53.806Z,38.40
2024-04-26T15:08:40.730Z,38.56
2024-04-26T15:11:28.228Z,38.62
2024-04-26T15:14:16.049Z,38.92
2024-04-26T15:17:02.777Z,39.02
2024-04-26T15:19:49.468Z,39.54
2024-04-26T15:22:36.180Z,40.33
2024-04-26T15:25:24.532Z,40.75
2024-04-26T15:28:10.973Z,40.41
2024-04-26T15:30:56.997Z,41.02
2024-04-26T15:33:44.864Z,41.58
2024-04-26T15:36:31.054Z,42.09
2024-04-26T15:39:17.377Z,41.84
2024-04-26T15:42:03.805Z,42.03
2024-04-26T15:44:50.060Z,42.40
2024-04-26T15:47:39.175Z,41.94
2024-04-26T15:50:25.318Z,41.85
2024-04-26T15:53:11.442Z,41.92
2024-04-26T15:55:57.615Z,41.98
2024-04-26T15:58:43.819Z,41.77
2024-04-26T16:01:32.527Z,41.67
2024-04-26T16:04:19.263Z,41.54
2024-04-26T16:07:05.199Z,41.24
2024-04-26T16:09:51.399Z,41.04
2024-04-26T16:12:37.569Z,41.00
2024-04-26T16:15:23.989Z,40.85
2024-04-26T16:18:11.798Z,40.71
2024-04-26T16:20:57.957Z,40.25
2024-04-26T16:23:44.743Z,40.52
2024-04-26T16:26:31.501Z,40.70
2024-04-26T16:29:17.859Z,40.84
2024-04-26T16:32:04.543Z,40.74
2024-04-26T16:34:50.665Z,40.98
2024-04-26T16:37:37.291Z,41.15
2024-04-26T16:40:23.944Z,41.02
2024-04-26T16:43:10.297Z,41.18
2024-04-26T16:45:56.672Z,41.37
2024-04-26T16:48:43.435Z,41.39
2024-04-26T16:51:30.066Z,41.71
2024-04-26T16:54:16.553Z,41.83
2024-04-26T16:57:02.861Z,42.02
2024-04-26T16:59:49.031Z,42.56
2024-04-26T17:02:35.286Z,42.76
2024-04-26T17:05:21.996Z,43.04
2024-04-26T17:08:08.341Z,43.26
2024-04-26T17:10:54.690Z,43.27
2024-04-26T17:13:41.221Z,43.17
2024-04-26T17:16:27.485Z,43.49
2024-04-26T17:19:13.596Z,44.09
2024-04-26T17:21:59.681Z,43.62
2024-04-26T17:24:45.744Z,43.51
2024-04-26T17:27:31.676Z,44.25
2024-04-26T17:30:17.836Z,44.17
2024-04-26T17:33:04.719Z,44.72
2024-04-26T17:35:51.470Z,44.66
2024-04-26T17:38:44.954Z,45.17
2024-04-26T17:41:38.826Z,45.58
2024-04-26T17:44:25.861Z,45.11
2024-04-26T17:47:12.459Z,46.22
2024-04-26T17:49:58.851Z,45.40
2024-04-26T17:52:44.866Z,46.03
2024-04-26T17:55:31.343Z,47.16
2024-04-26T17:58:18.992Z,46.10
2024-04-26T18:01:05.953Z,47.20
2024-04-26T18:03:52.730Z,46.38
2024-04-26T18:06:38.837Z,46.86
2024-04-26T18:09:25.547Z,48.28
2024-04-26T18:12:12.117Z,48.87
2024-04-26T18:14:58.200Z,49.15
2024-04-26T18:17:45.044Z,49.57
2024-04-26T18:20:32.197Z,49.68
2024-04-26T18:23:18.470Z,49.66
2024-04-26T18:26:10.280Z,50.09
2024-04-26T18:28:58.400Z,49.54
2024-04-26T18:31:44.927Z,50.42
2024-04-26T18:34:31.319Z,49.81
2024-04-26T18:37:17.506Z,50.84
2024-04-26T18:40:03.961Z,50.65
2024-04-26T18:42:53.821Z,50.25
2024-04-26T18:45:40.071Z,50.72
2024-04-26T18:48:26.204Z,50.60
2024-04-26T18:51:16.940Z,51.27
2024-04-26T18:54:05.186Z,51.93
2024-04-26T18:56:52.347Z,52.50
2024-04-26T18:59:39.351Z,52.05
2024-04-26T19:02:25.529Z,53.90
2024-04-26T19:05:11.633Z,53.75
2024-04-26T19:07:57.967Z,52.91
2024-04-26T19:10:44.393Z,53.89
2024-04-26T19:13:30.717Z,52.52
2024-04-26T19:16:16.939Z,53.43
2024-04-26T19:19:03.385Z,54.94
2024-04-26T19:21:49.799Z,54.62
2024-04-26T19:24:36.076Z,54.71
2024-04-26T19:27:25.386Z,54.47
2024-04-26T19:30:15.305Z,54.75
2024-04-26T19:33:01.807Z,54.18
2024-04-26T19:35:48.259Z,55.12
2024-04-26T19:38:34.899Z,55.53
2024-04-26T19:41:23.376Z,55.83
2024-04-26T19:44:12.406Z,56.45
2024-04-26T19:46:59.059Z,55.62
2024-04-26T19:49:45.383Z,56.28
2024-04-26T19:52:50.266Z,55.48
2024-04-26T19:55:55.070Z,55.63
2024-04-26T19:58:44.043Z,56.26
2024-04-26T20:01:30.519Z,57.05
2024-04-26T20:04:16.936Z,56.37
2024-04-26T20:07:03.844Z,56.62
2024-04-26T20:09:50.633Z,55.88
2024-04-26T20:12:37.884Z,56.49
2024-04-26T20:15:24.100Z,56.72
2024-04-26T20:18:10.443Z,56.86
2024-04-26T20:20:56.835Z,57.53
2024-04-26T20:23:43.327Z,57.60
2024-04-26T20:26:29.613Z,57.85
2024-04-26T20:29:16.063Z,57.32
2024-04-26T20:32:02.983Z,57.12
2024-04-26T20:34:49.561Z,56.69
2024-04-26T20:37:35.689Z,57.56
2024-04-26T20:40:22.002Z,57.17
2024-04-26T20:43:08.184Z,57.25
2024-04-26T20:45:56.586Z,56.45
2024-04-26T20:48:43.984Z,57.08
2024-04-26T20:51:35.025Z,57.57
2024-04-26T20:54:21.397Z,57.41
2024-04-26T20:57:08.381Z,57.93
2024-04-26T20:59:55.138Z,57.45
2024-04-26T21:02:41.395Z,57.39
2024-04-26T21:05:28.027Z,56.85
2024-04-26T21:08:14.531Z,56.99
2024-04-26T21:11:01.004Z,56.41
2024-04-26T21:13:47.318Z,56.63
2024-04-26T21:16:33.531Z,56.79
2024-04-26T21:19:19.913Z,56.84
2024-04-26T21:22:06.276Z,56.44
2024-04-26T21:24:52.705Z,56.05
2024-04-26T21:27:38.555Z,56.68
2024-04-26T21:30:25.276Z,56.52
2024-04-26T21:33:11.694Z,56.68
2024-04-26T21:35:58.153Z,56.87
2024-04-26T21:38:44.906Z,56.02
2024-04-26T21:41:31.168Z,56.81
2024-04-26T21:44:17.446Z,57.10
2024-04-26T21:47:03.689Z,56.43
2024-04-26T21:49:50.159Z,56.23
2024-04-26T21:52:37.932Z,56.59
2024-04-26T21:55:24.754Z,55.46
2024-04-26T21:58:12.122Z,56.22
2024-04-26T22:00:58.556Z,56.22
2024-04-26T22:03:44.875Z,56.40
2024-04-26T22:06:34.170Z,55.96
2024-04-26T22:09:20.284Z,55.72
2024-04-26T22:12:08.057Z,56.17
2024-04-26T22:14:54.348Z,56.29
2024-04-26T22:17:42.707Z,55.59
2024-04-26T22:20:29.278Z,55.94
2024-04-26T22:23:15.572Z,55.71
2024-04-26T22:26:02.499Z,55.59
2024-04-26T22:28:48.851Z,55.21
2024-04-26T22:31:35.024Z,56.01
2024-04-26T22:34:20.949Z,54.80
2024-04-26T22:37:07.066Z,55.42
2024-04-26T22:39:53.384Z,55.23
2024-04-26T22:42:42.531Z,54.84
2024-04-26T22:45:29.943Z,55.19
2024-04-26T22:48:17.329Z,54.67
2024-04-26T22:51:04.414Z,54.56
2024-04-26T22:53:51.307Z,54.59
2024-04-26T22:56:38.105Z,54.38
2024-04-26T22:59:24.321Z,54.16
2024-04-26T23:02:10.831Z,54.27
2024-04-26T23:04:56.802Z,54.18
2024-04-26T23:07:43.050Z,53.74
2024-04-26T23:10:29.373Z,53.83
2024-04-26T23:13:15.537Z,53.78
2024-04-26T23:16:01.759Z,53.88
2024-04-26T23:18:48.279Z,53.80
2024-04-26T23:21:34.739Z,53.64
2024-04-26T23:24:21.141Z,53.54
2024-04-26T23:27:07.523Z,53.48
2024-04-26T23:29:53.771Z,53.35
2024-04-26T23:32:40.001Z,53.49
2024-04-26T23:35:26.138Z,53.22
2024-04-26T23:38:12.220Z,53.31
2024-04-26T23:40:58.301Z,53.23
2024-04-26T23:43:44.824Z,53.24
2024-04-26T23:46:32.513Z,53.13
2024-04-26T23:49:18.645Z,53.06
2024-04-26T23:52:05.233Z,52.98
2024-04-26T23:54:51.603Z,52.92
2024-04-26T23:57:37.813Z,52.73
